Time;durP1;ratioP1;P1;durP2;ratioP2;P2;SDS_P1;SDS_P2;PMS_P1;PMS_P2;Temp;Humidity;BMP_temperature;BMP_pressure;BME280_temperature;BME280_humidity;BME280_pressure;Samples;Min_cycle;Max_cycle;Signal;HPM_P1;HPM_P2
2022/03/25 00:00:06;;;;;;;40.77;28.50;;;;;;;;;;5055087;28;20171;-65
2022/03/25 00:02:32;;;;;;;40.40;29.07;;;;;;;;;;5054945;28;20174;-65
2022/03/25 00:04:58;;;;;;;43.50;28.07;;;;;;;;;;5054533;28;20273;-65
2022/03/25 00:07:26;;;;;;;37.60;28.07;;;;;;;;;;5054634;28;20198;-65
2022/03/25 00:09:52;;;;;;;43.20;29.13;;;;;;;;;;5054855;28;20185;-65
2022/03/25 00:12:18;;;;;;;39.67;29.17;;;;;;;;;;5037034;28;20182;-66
2022/03/25 00:14:44;;;;;;;46.17;29.73;;;;;;;;;;5055260;28;20261;-65
2022/03/25 00:17:10;;;;;;;38.83;29.90;;;;;;;;;;5055208;28;20198;-65
2022/03/25 00:19:36;;;;;;;42.33;29.10;;;;;;;;;;5055698;28;20171;-65
2022/03/25 00:22:02;;;;;;;43.80;29.43;;;;;;;;;;5056626;28;20240;-65
2022/03/25 00:24:27;;;;;;;41.67;28.83;;;;;;;;;;5068816;28;20652;-65
2022/03/25 00:26:53;;;;;;;43.87;29.87;;;;;;;;;;5056921;28;20253;-66
2022/03/25 00:29:19;;;;;;;44.63;30.50;;;;;;;;;;5057326;28;20253;-66
2022/03/25 00:31:46;;;;;;;47.30;31.00;;;;;;;;;;5074679;28;20189;-65
2022/03/25 00:34:12;;;;;;;38.27;28.23;;;;;;;;;;5055720;28;20163;-65
2022/03/25 00:36:38;;;;;;;47.23;30.43;;;;;;;;;;5071499;28;20232;-65
2022/03/25 00:39:04;;;;;;;47.53;31.37;;;;;;;;;;5039145;28;20234;-65
2022/03/25 00:41:32;;;;;;;47.33;32.27;;;;;;;;;;5056041;28;20247;-65
2022/03/25 00:43:59;;;;;;;45.80;32.03;;;;;;;;;;5055366;28;20189;-65
2022/03/25 00:46:27;;;;;;;45.07;31.73;;;;;;;;;;5054975;28;20175;-65
2022/03/25 00:48:55;;;;;;;52.23;33.50;;;;;;;;;;5054963;28;20178;-65
2022/03/25 00:51:21;;;;;;;52.70;33.83;;;;;;;;;;5036954;28;20242;-65
2022/03/25 00:53:47;;;;;;;44.83;31.53;;;;;;;;;;5036417;28;20720;-66
2022/03/25 00:56:13;;;;;;;49.37;33.67;;;;;;;;;;5054540;28;20220;-65
2022/03/25 00:58:38;;;;;;;42.20;32.27;;;;;;;;;;5036779;28;20264;-65
2022/03/25 01:01:04;;;;;;;51.53;35.87;;;;;;;;;;5036306;28;20240;-66
2022/03/25 01:03:31;;;;;;;65.73;40.13;;;;;;;;;;5041209;28;20257;-66
2022/03/25 01:05:57;;;;;;;59.07;38.27;;;;;;;;;;5052942;28;20198;-65
2022/03/25 01:08:23;;;;;;;54.53;38.07;;;;;;;;;;5071355;28;20207;-65
2022/03/25 01:10:49;;;;;;;56.23;37.33;;;;;;;;;;5068951;28;20174;-66
2022/03/25 01:13:15;;;;;;;55.43;37.83;;;;;;;;;;5050927;28;20224;-65
2022/03/25 01:15:41;;;;;;;51.00;35.27;;;;;;;;;;5064832;28;20186;-65
2022/03/25 01:18:07;;;;;;;55.73;36.93;;;;;;;;;;5057373;28;20198;-65
2022/03/25 01:20:33;;;;;;;55.03;35.57;;;;;;;;;;5036698;28;20253;-65
2022/03/25 01:22:59;;;;;;;50.07;32.60;;;;;;;;;;5054686;28;20213;-65
2022/03/25 01:25:25;;;;;;;50.80;34.97;;;;;;;;;;5036350;28;20181;-65
2022/03/25 01:27:51;;;;;;;50.00;35.53;;;;;;;;;;5054926;28;20218;-65
2022/03/25 01:30:17;;;;;;;52.80;35.33;;;;;;;;;;5040471;28;20556;-65
2022/03/25 01:32:43;;;;;;;55.13;35.53;;;;;;;;;;5040474;28;20182;-64
2022/03/25 01:35:09;;;;;;;54.47;35.77;;;;;;;;;;5057831;28;20752;-65
2022/03/25 01:37:36;;;;;;;51.10;34.40;;;;;;;;;;5040071;28;20210;-65
2022/03/25 01:40:02;;;;;;;54.10;35.97;;;;;;;;;;5040057;28;20183;-65
2022/03/25 01:42:32;;;;;;;55.80;34.27;;;;;;;;;;5039970;28;20181;-65
2022/03/25 01:44:58;;;;;;;62.17;33.37;;;;;;;;;;5057792;28;20178;-65
2022/03/25 01:47:28;;;;;;;49.90;33.77;;;;;;;;;;5057803;28;20194;-65
2022/03/25 01:49:54;;;;;;;50.90;33.30;;;;;;;;;;5057469;28;20646;-65
2022/03/25 01:52:20;;;;;;;47.13;31.77;;;;;;;;;;5057864;28;20209;-65
2022/03/25 01:54:46;;;;;;;50.07;32.20;;;;;;;;;;5039372;28;20182;-64
2022/03/25 01:57:12;;;;;;;50.47;33.20;;;;;;;;;;5057933;28;20569;-65
2022/03/25 01:59:38;;;;;;;49.60;32.63;;;;;;;;;;5040981;28;20638;-65
2022/03/25 02:02:05;;;;;;;45.60;30.83;;;;;;;;;;5059261;28;20181;-65
2022/03/25 02:04:31;;;;;;;49.40;32.83;;;;;;;;;;5059548;28;20210;-65
2022/03/25 02:06:57;;;;;;;51.77;34.37;;;;;;;;;;5041005;28;20738;-65
2022/03/25 02:09:25;;;;;;;52.40;33.07;;;;;;;;;;5058952;28;20186;-65
2022/03/25 02:11:51;;;;;;;49.87;32.57;;;;;;;;;;5041202;28;20694;-65
2022/03/25 02:14:17;;;;;;;47.53;32.87;;;;;;;;;;5041107;28;20221;-65
2022/03/25 02:16:48;;;;;;;52.60;34.27;;;;;;;;;;5041467;28;20217;-64
2022/03/25 02:19:18;;;;;;;55.67;34.10;;;;;;;;;;5061612;28;20199;-65
2022/03/25 02:21:44;;;;;;;49.43;32.93;;;;;;;;;;5060057;28;20650;-66
2022/03/25 02:24:12;;;;;;;53.63;34.13;;;;;;;;;;5039443;28;20266;-65
2022/03/25 02:26:39;;;;;;;52.53;34.87;;;;;;;;;;5056411;28;20167;-64
2022/03/25 02:29:05;;;;;;;51.67;33.97;;;;;;;;;;5056481;28;20645;-65
2022/03/25 02:31:31;;;;;;;50.83;34.60;;;;;;;;;;5056908;28;20178;-65
2022/03/25 02:33:58;;;;;;;54.50;35.37;;;;;;;;;;5038809;28;20178;-65
2022/03/25 02:36:24;;;;;;;52.33;35.70;;;;;;;;;;5061395;28;20183;-65
2022/03/25 02:38:50;;;;;;;52.23;36.60;;;;;;;;;;5063960;28;20735;-66
2022/03/25 02:41:16;;;;;;;54.80;35.00;;;;;;;;;;5065029;28;20179;-65
2022/03/25 02:43:42;;;;;;;57.10;35.27;;;;;;;;;;5047578;28;20186;-66
2022/03/25 02:46:08;;;;;;;51.97;36.03;;;;;;;;;;5045846;28;20182;-65
2022/03/25 02:48:35;;;;;;;53.17;34.50;;;;;;;;;;5062769;28;20201;-65
2022/03/25 02:51:01;;;;;;;64.47;35.87;;;;;;;;;;5059769;28;20174;-65
2022/03/25 02:53:28;;;;;;;59.70;36.10;;;;;;;;;;5057118;28;20182;-65
2022/03/25 02:55:54;;;;;;;53.63;35.50;;;;;;;;;;5039003;28;20182;-65
2022/03/25 02:58:20;;;;;;;57.37;37.37;;;;;;;;;;5056679;28;20225;-65
2022/03/25 03:00:46;;;;;;;56.67;36.43;;;;;;;;;;5056561;28;20179;-65
2022/03/25 03:03:12;;;;;;;56.77;36.17;;;;;;;;;;5056455;28;20178;-65
2022/03/25 03:05:38;;;;;;;54.03;34.43;;;;;;;;;;5056183;28;20181;-65
2022/03/25 03:08:05;;;;;;;55.57;36.63;;;;;;;;;;5056792;28;20198;-65
2022/03/25 03:10:31;;;;;;;60.57;38.00;;;;;;;;;;5057293;28;20187;-65
2022/03/25 03:12:58;;;;;;;57.80;36.43;;;;;;;;;;5039413;28;20256;-65
2022/03/25 03:15:25;;;;;;;55.17;37.40;;;;;;;;;;5038196;28;20203;-65
2022/03/25 03:17:51;;;;;;;56.90;36.50;;;;;;;;;;5038243;28;20206;-65
2022/03/25 03:20:18;;;;;;;63.33;37.60;;;;;;;;;;5055889;28;20178;-65
2022/03/25 03:22:44;;;;;;;62.60;37.93;;;;;;;;;;5055503;28;20259;-65
2022/03/25 03:25:10;;;;;;;53.83;36.67;;;;;;;;;;5037637;28;20179;-65
2022/03/25 03:30:22;;;;;;;60.13;39.07;;;;;;;;;;5053580;28;20272;-66
2022/03/25 03:32:54;;;;;;;59.37;38.23;;;;;;;;;;5054782;28;20175;-65
2022/03/25 03:35:20;;;;;;;66.80;39.53;;;;;;;;;;5055085;28;20621;-66
2022/03/25 03:37:46;;;;;;;63.90;40.07;;;;;;;;;;5054855;28;20206;-65
2022/03/25 03:40:14;;;;;;;61.33;41.13;;;;;;;;;;5054686;28;20183;-65
2022/03/25 03:42:41;;;;;;;62.10;39.40;;;;;;;;;;5037080;28;20226;-65
2022/03/25 03:45:08;;;;;;;60.53;39.93;;;;;;;;;;5054817;28;20190;-64
2022/03/25 03:47:34;;;;;;;59.87;39.33;;;;;;;;;;5054543;28;20170;-65
2022/03/25 03:50:00;;;;;;;67.50;39.80;;;;;;;;;;5054245;28;20247;-66
2022/03/25 03:52:26;;;;;;;59.50;39.17;;;;;;;;;;5036390;28;20564;-64
2022/03/25 03:54:52;;;;;;;69.43;46.40;;;;;;;;;;5035381;28;20401;-65
2022/03/25 03:57:18;;;;;;;62.30;44.73;;;;;;;;;;5054076;28;20389;-65
2022/03/25 03:59:44;;;;;;;61.80;40.30;;;;;;;;;;5054299;28;20518;-65
2022/03/25 04:02:10;;;;;;;60.20;39.73;;;;;;;;;;5054302;28;20285;-65
2022/03/25 04:04:36;;;;;;;65.20;40.40;;;;;;;;;;5036341;28;20178;-65
2022/03/25 04:07:02;;;;;;;63.37;39.20;;;;;;;;;;5054694;28;20568;-64
2022/03/25 04:09:28;;;;;;;60.17;38.13;;;;;;;;;;5053974;28;20666;-64
2022/03/25 04:11:54;;;;;;;57.97;38.60;;;;;;;;;;5054086;28;20557;-65
2022/03/25 04:14:20;;;;;;;57.37;37.20;;;;;;;;;;5054297;28;20186;-64
2022/03/25 04:16:47;;;;;;;61.80;37.80;;;;;;;;;;5054191;28;20178;-65
2022/03/25 04:19:13;;;;;;;63.90;40.10;;;;;;;;;;5053798;28;20210;-64
2022/03/25 04:21:39;;;;;;;67.67;39.40;;;;;;;;;;5054159;28;20213;-65
2022/03/25 04:24:05;;;;;;;65.00;41.60;;;;;;;;;;5036021;28;20198;-65
2022/03/25 04:26:32;;;;;;;68.93;40.03;;;;;;;;;;5036014;28;20182;-64
2022/03/25 04:28:58;;;;;;;67.40;41.47;;;;;;;;;;5053651;28;20264;-65
2022/03/25 04:31:23;;;;;;;68.27;40.67;;;;;;;;;;5036219;28;20269;-64
2022/03/25 04:33:49;;;;;;;71.67;44.20;;;;;;;;;;5053735;28;20269;-64
2022/03/25 04:36:15;;;;;;;68.47;41.40;;;;;;;;;;5053801;28;20179;-64
2022/03/25 04:38:42;;;;;;;68.83;41.00;;;;;;;;;;5053548;28;20210;-65
2022/03/25 04:41:10;;;;;;;62.83;40.77;;;;;;;;;;5053765;28;20271;-65
2022/03/25 04:43:36;;;;;;;62.93;39.60;;;;;;;;;;5054213;28;20166;-64
2022/03/25 04:46:02;;;;;;;68.43;43.53;;;;;;;;;;5035909;28;20190;-65
2022/03/25 04:48:28;;;;;;;71.03;43.03;;;;;;;;;;5053562;28;20636;-65
2022/03/25 04:50:54;;;;;;;69.70;43.30;;;;;;;;;;5054290;28;20214;-65
2022/03/25 04:53:20;;;;;;;66.70;42.33;;;;;;;;;;5036079;28;20201;-64
2022/03/25 04:55:46;;;;;;;71.70;42.83;;;;;;;;;;5036273;28;20214;-64
2022/03/25 04:58:12;;;;;;;63.43;41.53;;;;;;;;;;5054039;28;20213;-63
2022/03/25 05:00:39;;;;;;;69.00;43.03;;;;;;;;;;5054331;28;20209;-64
2022/03/25 05:03:05;;;;;;;69.43;42.53;;;;;;;;;;5053588;28;20174;-65
2022/03/25 05:05:32;;;;;;;75.80;43.17;;;;;;;;;;5054407;28;20167;-64
2022/03/25 05:07:58;;;;;;;69.27;44.50;;;;;;;;;;5054416;28;20179;-62
2022/03/25 05:10:24;;;;;;;78.97;45.20;;;;;;;;;;5054109;28;20232;-63
2022/03/25 05:12:50;;;;;;;77.17;44.60;;;;;;;;;;5036261;28;20187;-64
2022/03/25 05:15:16;;;;;;;70.23;44.37;;;;;;;;;;5035974;28;20192;-64
2022/03/25 05:17:45;;;;;;;76.80;45.27;;;;;;;;;;5054180;28;20202;-63
2022/03/25 05:20:11;;;;;;;76.73;45.57;;;;;;;;;;5036084;28;20198;-63
2022/03/25 05:22:37;;;;;;;73.87;44.23;;;;;;;;;;5054426;28;20174;-65
2022/03/25 05:25:07;;;;;;;72.20;45.47;;;;;;;;;;5036238;28;20178;-64
2022/03/25 05:27:43;;;;;;;77.77;45.23;;;;;;;;;;5035858;28;20182;-63
2022/03/25 05:30:09;;;;;;;79.17;47.97;;;;;;;;;;5053805;28;20214;-64
2022/03/25 05:32:35;;;;;;;80.33;47.07;;;;;;;;;;5054095;28;20178;-64
2022/03/25 05:35:01;;;;;;;76.77;45.57;;;;;;;;;;5036277;28;20209;-63
2022/03/25 05:37:27;;;;;;;78.07;45.97;;;;;;;;;;5054403;28;20694;-64
2022/03/25 05:39:53;;;;;;;78.27;47.50;;;;;;;;;;5035608;28;20218;-65
2022/03/25 05:42:19;;;;;;;74.13;46.50;;;;;;;;;;5053807;28;20634;-65
2022/03/25 05:44:45;;;;;;;76.27;46.97;;;;;;;;;;5036057;28;20170;-65
2022/03/25 05:47:11;;;;;;;81.97;46.80;;;;;;;;;;5053374;28;20170;-63
2022/03/25 05:49:37;;;;;;;76.37;46.63;;;;;;;;;;5053340;28;20205;-63
2022/03/25 05:52:03;;;;;;;75.43;46.70;;;;;;;;;;5053532;28;20177;-65
2022/03/25 05:54:29;;;;;;;84.07;48.43;;;;;;;;;;5054102;28;20182;-64
2022/03/25 05:56:55;;;;;;;78.50;46.93;;;;;;;;;;5035730;28;20177;-65
2022/03/25 05:59:21;;;;;;;77.20;47.67;;;;;;;;;;5053500;28;20238;-63
2022/03/25 06:01:47;;;;;;;80.50;46.20;;;;;;;;;;5035199;28;20178;-65
2022/03/25 06:04:13;;;;;;;76.70;46.73;;;;;;;;;;5053442;28;20206;-64
2022/03/25 06:06:38;;;;;;;74.87;46.77;;;;;;;;;;5053065;28;20175;-65
2022/03/25 06:09:04;;;;;;;72.53;45.20;;;;;;;;;;5052986;28;20257;-65
2022/03/25 06:11:31;;;;;;;79.20;45.50;;;;;;;;;;5052629;28;20676;-63
2022/03/25 06:13:56;;;;;;;75.27;46.73;;;;;;;;;;5053877;28;20672;-63
2022/03/25 06:16:22;;;;;;;80.80;45.90;;;;;;;;;;5038452;28;20174;-64
2022/03/25 06:18:49;;;;;;;72.97;46.33;;;;;;;;;;5056102;28;20221;-64
2022/03/25 06:21:16;;;;;;;74.57;45.67;;;;;;;;;;5056531;28;20181;-64
2022/03/25 06:23:42;;;;;;;71.17;45.87;;;;;;;;;;5038541;28;20662;-64
2022/03/25 06:26:08;;;;;;;70.03;45.07;;;;;;;;;;5056216;28;20206;-64
2022/03/25 06:28:35;;;;;;;70.23;44.87;;;;;;;;;;5056218;28;20236;-64
2022/03/25 06:31:01;;;;;;;82.73;45.50;;;;;;;;;;5056575;28;20185;-65
2022/03/25 06:33:27;;;;;;;75.70;46.63;;;;;;;;;;5055999;28;20261;-62
2022/03/25 06:35:53;;;;;;;77.43;44.87;;;;;;;;;;5038095;28;20189;-61
2022/03/25 06:38:19;;;;;;;72.93;43.53;;;;;;;;;;5055867;28;20210;-63
2022/03/25 06:40:45;;;;;;;74.83;43.60;;;;;;;;;;5055867;28;20189;-63
2022/03/25 06:43:11;;;;;;;67.43;42.00;;;;;;;;;;5037869;28;20185;-63
2022/03/25 06:45:37;;;;;;;64.40;41.80;;;;;;;;;;5055839;28;20261;-63
2022/03/25 06:48:03;;;;;;;63.60;42.53;;;;;;;;;;5055987;28;20612;-63
2022/03/25 06:50:30;;;;;;;64.20;43.27;;;;;;;;;;5055764;28;20269;-63
2022/03/25 06:52:57;;;;;;;73.70;44.83;;;;;;;;;;5037560;28;20178;-63
2022/03/25 06:55:24;;;;;;;71.07;44.00;;;;;;;;;;5055846;28;20175;-63
2022/03/25 06:57:51;;;;;;;63.20;43.70;;;;;;;;;;5055554;28;20225;-65
2022/03/25 07:00:17;;;;;;;67.60;44.87;;;;;;;;;;5037821;28;20188;-63
2022/03/25 07:02:44;;;;;;;67.03;43.87;;;;;;;;;;5037837;28;20261;-63
2022/03/25 07:05:10;;;;;;;63.17;43.67;;;;;;;;;;5055729;28;20174;-63
2022/03/25 07:07:40;;;;;;;64.63;44.43;;;;;;;;;;5055783;28;20516;-63
2022/03/25 07:10:09;;;;;;;65.17;43.70;;;;;;;;;;5055511;28;20244;-63
2022/03/25 07:12:35;;;;;;;91.07;45.73;;;;;;;;;;5038414;28;20221;-63
2022/03/25 07:15:02;;;;;;;64.23;43.73;;;;;;;;;;5055561;28;20179;-63
2022/03/25 07:17:30;;;;;;;66.03;43.23;;;;;;;;;;5055327;28;20716;-63
2022/03/25 07:19:56;;;;;;;64.77;42.57;;;;;;;;;;5055435;28;20634;-63
2022/03/25 07:22:21;;;;;;;64.27;42.97;;;;;;;;;;5055792;28;20210;-64
2022/03/25 07:24:47;;;;;;;64.50;43.33;;;;;;;;;;5055060;28;20178;-65
2022/03/25 07:27:13;;;;;;;63.50;41.97;;;;;;;;;;5055210;28;20688;-63
2022/03/25 07:29:39;;;;;;;66.30;45.57;;;;;;;;;;5036942;28;20807;-64
2022/03/25 07:32:05;;;;;;;70.83;44.20;;;;;;;;;;5054867;28;20190;-64
2022/03/25 07:34:34;;;;;;;69.33;45.73;;;;;;;;;;5037193;28;20183;-64
2022/03/25 07:37:00;;;;;;;73.87;46.93;;;;;;;;;;5054950;28;20258;-63
2022/03/25 07:39:26;;;;;;;66.23;44.90;;;;;;;;;;5055401;28;20206;-63
2022/03/25 07:41:52;;;;;;;67.40;43.27;;;;;;;;;;5036929;28;20692;-63
2022/03/25 07:44:18;;;;;;;67.33;43.23;;;;;;;;;;5055158;28;20584;-63
2022/03/25 07:46:44;;;;;;;67.23;45.33;;;;;;;;;;5054880;28;20179;-64
2022/03/25 07:49:10;;;;;;;72.80;45.40;;;;;;;;;;5055222;28;20245;-64
2022/03/25 07:51:35;;;;;;;68.73;45.70;;;;;;;;;;5037509;28;20224;-63
2022/03/25 07:54:01;;;;;;;69.23;45.67;;;;;;;;;;5055146;28;20179;-63
2022/03/25 07:56:28;;;;;;;70.13;44.97;;;;;;;;;;5054505;28;20217;-63
2022/03/25 07:58:54;;;;;;;75.60;45.83;;;;;;;;;;5054680;28;20210;-64
2022/03/25 08:01:20;;;;;;;73.10;45.93;;;;;;;;;;5054463;28;20174;-63
2022/03/25 08:03:46;;;;;;;71.63;45.93;;;;;;;;;;5054562;28;20171;-63
2022/03/25 08:06:15;;;;;;;67.60;46.40;;;;;;;;;;5054499;28;20719;-63
2022/03/25 08:08:41;;;;;;;70.60;44.53;;;;;;;;;;5036493;28;20202;-63
2022/03/25 08:11:08;;;;;;;69.60;44.17;;;;;;;;;;5054431;28;20719;-63
2022/03/25 08:13:34;;;;;;;67.70;44.33;;;;;;;;;;5054636;28;20646;-64
2022/03/25 08:16:00;;;;;;;71.10;44.67;;;;;;;;;;5054543;28;20182;-63
2022/03/25 08:18:26;;;;;;;64.07;42.80;;;;;;;;;;5054154;28;20228;-63
2022/03/25 08:20:53;;;;;;;67.20;41.97;;;;;;;;;;5054061;28;20179;-63
2022/03/25 08:28:53;;;;;;;62.37;43.60;;;;;;;;;;5054366;28;20645;-63
2022/03/25 08:31:19;;;;;;;62.23;42.27;;;;;;;;;;5036131;28;20186;-62
2022/03/25 08:33:45;;;;;;;68.07;42.90;;;;;;;;;;5036070;28;20182;-63
2022/03/25 08:36:11;;;;;;;66.80;42.53;;;;;;;;;;5036087;28;20250;-63
2022/03/25 08:38:37;;;;;;;57.20;39.43;;;;;;;;;;5035840;28;20706;-63
2022/03/25 08:41:04;;;;;;;64.37;42.17;;;;;;;;;;5035824;28;20178;-63
2022/03/25 08:43:31;;;;;;;61.67;38.87;;;;;;;;;;5035978;28;20269;-63
2022/03/25 08:45:57;;;;;;;53.63;37.23;;;;;;;;;;5053692;28;20189;-63
2022/03/25 08:48:23;;;;;;;61.67;39.20;;;;;;;;;;5053553;28;20199;-63
2022/03/25 08:50:49;;;;;;;60.23;40.43;;;;;;;;;;5036158;28;20680;-63
2022/03/25 08:53:16;;;;;;;61.80;38.20;;;;;;;;;;5035975;28;20182;-62
2022/03/25 08:55:42;;;;;;;64.63;40.07;;;;;;;;;;5053634;28;20643;-63
2022/03/25 08:58:08;;;;;;;58.23;39.70;;;;;;;;;;5053475;28;20198;-63
2022/03/25 09:00:34;;;;;;;65.33;40.70;;;;;;;;;;5035638;28;20179;-63
2022/03/25 09:03:00;;;;;;;60.77;42.43;;;;;;;;;;5053493;28;20192;-63
2022/03/25 09:05:26;;;;;;;65.70;43.70;;;;;;;;;;5053454;28;20174;-63
2022/03/25 09:07:52;;;;;;;67.97;44.13;;;;;;;;;;5053763;28;20646;-62
2022/03/25 09:10:17;;;;;;;63.53;43.60;;;;;;;;;;5053470;28;20260;-65
2022/03/25 09:12:45;;;;;;;69.87;42.53;;;;;;;;;;5035579;28;20561;-63
2022/03/25 09:15:13;;;;;;;70.67;44.27;;;;;;;;;;5053873;28;20244;-62
2022/03/25 09:17:39;;;;;;;65.63;42.23;;;;;;;;;;5053180;28;20194;-63
2022/03/25 09:20:06;;;;;;;66.03;43.47;;;;;;;;;;5035173;28;20202;-63
2022/03/25 09:22:32;;;;;;;65.10;39.27;;;;;;;;;;5053554;28;20179;-63
2022/03/25 09:24:58;;;;;;;65.67;45.67;;;;;;;;;;5053285;28;20170;-63
2022/03/25 09:27:24;;;;;;;61.07;42.00;;;;;;;;;;5053726;28;20236;-63
2022/03/25 09:29:50;;;;;;;65.37;43.47;;;;;;;;;;5053082;28;20289;-63
2022/03/25 09:32:16;;;;;;;66.40;43.57;;;;;;;;;;5053146;28;20274;-63
2022/03/25 09:37:27;;;;;;;64.27;41.53;;;;;;;;;;5053262;28;20177;-63
2022/03/25 09:39:53;;;;;;;62.37;42.10;;;;;;;;;;5053153;28;20197;-63
2022/03/25 09:42:19;;;;;;;67.47;43.77;;;;;;;;;;5052964;28;20170;-63
2022/03/25 09:44:46;;;;;;;64.20;42.50;;;;;;;;;;5053115;28;20166;-63
2022/03/25 09:47:14;;;;;;;73.23;44.03;;;;;;;;;;5053273;28;20716;-63
2022/03/25 09:49:40;;;;;;;61.50;45.77;;;;;;;;;;5038592;28;20591;-63
2022/03/25 09:52:06;;;;;;;68.37;44.50;;;;;;;;;;5056912;28;20312;-63
2022/03/25 09:54:33;;;;;;;64.63;42.80;;;;;;;;;;5056794;28;20556;-63
2022/03/25 09:56:59;;;;;;;63.03;43.53;;;;;;;;;;5057025;28;20185;-63
2022/03/25 09:59:24;;;;;;;60.43;42.10;;;;;;;;;;5056775;28;20209;-63
2022/03/25 10:01:50;;;;;;;61.07;40.20;;;;;;;;;;5056892;28;20601;-63
2022/03/25 10:04:36;;;;;;;62.90;40.20;;;;;;;;;;5056713;28;20186;-63
2022/03/25 10:07:14;;;;;;;58.10;40.13;;;;;;;;;;5056967;28;20577;-62
2022/03/25 10:09:39;;;;;;;60.47;41.47;;;;;;;;;;5056636;28;20201;-63
2022/03/25 10:12:29;;;;;;;61.57;41.43;;;;;;;;;;5056797;28;20265;-62
2022/03/25 10:15:14;;;;;;;62.17;37.57;;;;;;;;;;5046440;28;20190;-63
2022/03/25 10:17:50;;;;;;;55.00;36.97;;;;;;;;;;5056527;28;20202;-63
2022/03/25 10:20:17;;;;;;;51.00;33.47;;;;;;;;;;5056765;28;20179;-64
2022/03/25 10:22:58;;;;;;;57.37;36.50;;;;;;;;;;5038674;28;20289;-64
2022/03/25 10:25:33;;;;;;;56.67;38.53;;;;;;;;;;5038901;28;20646;-63
2022/03/25 10:28:00;;;;;;;56.97;35.83;;;;;;;;;;5056732;28;20200;-64
2022/03/25 10:30:40;;;;;;;46.93;30.33;;;;;;;;;;5056756;28;20185;-64
2022/03/25 10:33:10;;;;;;;47.57;28.23;;;;;;;;;;5038561;28;20253;-64
2022/03/25 10:35:56;;;;;;;49.67;30.43;;;;;;;;;;5056461;28;20254;-64
2022/03/25 10:38:22;;;;;;;47.03;30.63;;;;;;;;;;5042486;28;20222;-63
2022/03/25 10:40:49;;;;;;;55.17;33.60;;;;;;;;;;5056496;28;20175;-63
2022/03/25 10:43:15;;;;;;;49.73;31.33;;;;;;;;;;5038253;28;20193;-64
2022/03/25 10:45:41;;;;;;;48.97;31.93;;;;;;;;;;5056179;28;20207;-64
2022/03/25 10:48:25;;;;;;;47.80;31.60;;;;;;;;;;5038536;28;20187;-64
2022/03/25 10:51:00;;;;;;;46.47;28.50;;;;;;;;;;5056084;28;20162;-65
2022/03/25 10:53:30;;;;;;;40.50;26.10;;;;;;;;;;5056394;28;20591;-64
2022/03/25 10:55:57;;;;;;;40.07;25.37;;;;;;;;;;5055931;28;20684;-63
2022/03/25 10:58:24;;;;;;;36.40;23.00;;;;;;;;;;5055994;28;20285;-65
2022/03/25 11:00:50;;;;;;;37.53;22.87;;;;;;;;;;5055250;28;20171;-64
2022/03/25 11:03:19;;;;;;;34.30;22.10;;;;;;;;;;5055754;28;20249;-64
2022/03/25 11:05:45;;;;;;;35.63;22.13;;;;;;;;;;5055645;28;20175;-64
2022/03/25 11:08:11;;;;;;;33.50;21.77;;;;;;;;;;5055711;28;20652;-64
2022/03/25 11:10:38;;;;;;;31.20;21.40;;;;;;;;;;5056119;28;20550;-63
2022/03/25 11:13:04;;;;;;;30.63;20.53;;;;;;;;;;5037599;28;20210;-63
2022/03/25 11:15:31;;;;;;;32.43;22.27;;;;;;;;;;5055411;28;20218;-63
2022/03/25 11:17:57;;;;;;;37.83;22.03;;;;;;;;;;5055592;28;20267;-63
2022/03/25 11:20:25;;;;;;;30.17;22.97;;;;;;;;;;5055444;28;20202;-63
2022/03/25 11:23:06;;;;;;;34.03;20.70;;;;;;;;;;5055519;28;20174;-64
2022/03/25 11:25:36;;;;;;;33.40;19.27;;;;;;;;;;5055250;28;20178;-63
2022/03/25 11:28:05;;;;;;;31.43;20.13;;;;;;;;;;5037186;28;20185;-64
2022/03/25 11:30:35;;;;;;;28.53;19.20;;;;;;;;;;5055398;28;20229;-64
2022/03/25 11:33:02;;;;;;;30.63;20.17;;;;;;;;;;5055205;28;20162;-63
2022/03/25 11:35:30;;;;;;;30.10;20.83;;;;;;;;;;5055282;28;20178;-64
2022/03/25 11:38:11;;;;;;;33.40;19.33;;;;;;;;;;5037115;28;20623;-63
2022/03/25 11:40:39;;;;;;;26.23;15.00;;;;;;;;;;5055072;28;20179;-64
2022/03/25 11:43:34;;;;;;;27.73;18.30;;;;;;;;;;5055094;28;20170;-64
2022/03/25 11:46:00;;;;;;;36.47;19.63;;;;;;;;;;5038029;28;20190;-64
2022/03/25 11:48:26;;;;;;;26.73;16.70;;;;;;;;;;5055223;28;20260;-64
2022/03/25 11:50:55;;;;;;;26.00;15.43;;;;;;;;;;5037181;28;20182;-66
2022/03/25 11:53:22;;;;;;;23.03;15.07;;;;;;;;;;5054829;28;20638;-64
2022/03/25 11:56:03;;;;;;;21.67;14.57;;;;;;;;;;5036681;28;20533;-63
2022/03/25 11:58:48;;;;;;;28.63;16.03;;;;;;;;;;5054831;28;20206;-64
2022/03/25 12:01:14;;;;;;;22.60;13.07;;;;;;;;;;5054960;28;20499;-63
2022/03/25 12:03:43;;;;;;;22.60;12.20;;;;;;;;;;5054528;28;20171;-64
2022/03/25 12:06:10;;;;;;;18.30;10.40;;;;;;;;;;5054564;28;20545;-65
2022/03/25 12:08:36;;;;;;;15.50;9.50;;;;;;;;;;5036537;28;20248;-64
2022/03/25 12:11:07;;;;;;;20.30;11.40;;;;;;;;;;5036518;28;20190;-64
2022/03/25 12:13:52;;;;;;;21.33;13.50;;;;;;;;;;5036551;28;20620;-64
2022/03/25 12:16:36;;;;;;;30.10;17.23;;;;;;;;;;5054403;28;20170;-63
2022/03/25 12:19:02;;;;;;;24.23;15.90;;;;;;;;;;5036796;28;20756;-63
2022/03/25 12:21:28;;;;;;;19.07;11.67;;;;;;;;;;5036387;28;20183;-63
2022/03/25 12:23:59;;;;;;;18.77;11.13;;;;;;;;;;5054819;28;20627;-64
2022/03/25 12:26:31;;;;;;;25.23;12.83;;;;;;;;;;5054323;28;20163;-64
2022/03/25 12:28:56;;;;;;;23.63;13.87;;;;;;;;;;5054280;28;20690;-63
2022/03/25 12:31:23;;;;;;;25.60;14.33;;;;;;;;;;5054704;28;20206;-64
2022/03/25 12:33:53;;;;;;;27.47;15.63;;;;;;;;;;5054248;28;20178;-63
2022/03/25 12:36:18;;;;;;;31.67;16.80;;;;;;;;;;5054020;28;20214;-65
2022/03/25 12:38:47;;;;;;;29.13;14.67;;;;;;;;;;5035785;28;20266;-64
2022/03/25 12:41:24;;;;;;;23.80;15.67;;;;;;;;;;5053888;28;20178;-64
2022/03/25 12:43:56;;;;;;;25.73;14.77;;;;;;;;;;5054200;28;20246;-63
2022/03/25 12:46:24;;;;;;;21.77;14.97;;;;;;;;;;5036310;28;20182;-70
2022/03/25 12:48:50;;;;;;;23.37;15.23;;;;;;;;;;5053531;28;20190;-62
2022/03/25 12:51:20;;;;;;;26.03;15.03;;;;;;;;;;5035713;28;20236;-62
2022/03/25 12:53:48;;;;;;;22.87;15.33;;;;;;;;;;5053683;28;20627;-62
2022/03/25 12:56:15;;;;;;;39.43;17.07;;;;;;;;;;5053972;28;20174;-62
2022/03/25 12:58:41;;;;;;;22.33;16.10;;;;;;;;;;5053268;28;20286;-62
2022/03/25 13:01:07;;;;;;;25.37;17.63;;;;;;;;;;5053673;28;20604;-62
2022/03/25 13:03:34;;;;;;;24.07;16.97;;;;;;;;;;5053456;28;20167;-63
2022/03/25 13:06:12;;;;;;;26.73;17.43;;;;;;;;;;5053754;28;20652;-62
2022/03/25 13:08:38;;;;;;;25.77;16.80;;;;;;;;;;5053570;28;20198;-62
2022/03/25 13:11:03;;;;;;;28.97;16.33;;;;;;;;;;5053600;28;20235;-62
2022/03/25 13:13:31;;;;;;;27.93;16.40;;;;;;;;;;5053319;28;20179;-62
2022/03/25 13:16:00;;;;;;;26.03;17.40;;;;;;;;;;5035487;28;20183;-62
2022/03/25 13:18:31;;;;;;;31.87;16.67;;;;;;;;;;5053073;28;20247;-63
2022/03/25 13:20:58;;;;;;;29.73;18.77;;;;;;;;;;5053648;28;20167;-63
2022/03/25 13:23:25;;;;;;;27.47;15.07;;;;;;;;;;5052481;28;20170;-63
2022/03/25 13:25:53;;;;;;;21.87;15.67;;;;;;;;;;5035196;28;20178;-63
2022/03/25 13:28:22;;;;;;;27.43;16.23;;;;;;;;;;5035186;28;20320;-63
2022/03/25 13:30:49;;;;;;;21.93;16.27;;;;;;;;;;5053445;28;20166;-65
2022/03/25 13:33:16;;;;;;;26.13;15.03;;;;;;;;;;5053068;28;20189;-63
2022/03/25 13:35:46;;;;;;;25.70;16.57;;;;;;;;;;5053030;28;20171;-63
2022/03/25 13:38:17;;;;;;;22.00;15.40;;;;;;;;;;5035082;28;20202;-63
2022/03/25 13:40:48;;;;;;;19.83;13.73;;;;;;;;;;5035184;28;20174;-63
2022/03/25 13:43:16;;;;;;;26.73;15.90;;;;;;;;;;5053122;28;20178;-63
2022/03/25 13:45:42;;;;;;;25.57;17.20;;;;;;;;;;5053041;28;20175;-63
2022/03/25 13:48:13;;;;;;;24.00;17.43;;;;;;;;;;5053008;28;20187;-63
2022/03/25 13:50:49;;;;;;;23.13;15.67;;;;;;;;;;5053442;28;20170;-63
2022/03/25 13:53:20;;;;;;;26.23;16.80;;;;;;;;;;5035116;28;20553;-64
2022/03/25 13:55:46;;;;;;;26.23;17.63;;;;;;;;;;5035481;28;20177;-64
2022/03/25 13:58:17;;;;;;;29.17;16.70;;;;;;;;;;5054260;28;20203;-63
2022/03/25 14:00:50;;;;;;;23.83;15.53;;;;;;;;;;5053226;28;20176;-64
2022/03/25 14:03:17;;;;;;;26.93;15.47;;;;;;;;;;5053702;28;20186;-64
2022/03/25 14:05:44;;;;;;;23.77;15.73;;;;;;;;;;5053233;28;20175;-64
2022/03/25 14:08:12;;;;;;;25.13;15.57;;;;;;;;;;5053121;28;20262;-64
2022/03/25 14:10:53;;;;;;;25.30;16.63;;;;;;;;;;5052672;28;20175;-64
2022/03/25 14:13:19;;;;;;;28.03;17.43;;;;;;;;;;5052725;28;20202;-64
2022/03/25 14:15:45;;;;;;;26.00;17.87;;;;;;;;;;5052732;28;20181;-63
2022/03/25 14:18:21;;;;;;;34.23;17.80;;;;;;;;;;5052760;28;20300;-64
2022/03/25 14:20:47;;;;;;;24.63;14.97;;;;;;;;;;5052882;28;20178;-64
2022/03/25 14:23:19;;;;;;;23.83;16.50;;;;;;;;;;5052645;28;20183;-64
2022/03/25 14:25:45;;;;;;;24.17;17.20;;;;;;;;;;5053146;28;20159;-65
2022/03/25 14:28:13;;;;;;;24.63;16.37;;;;;;;;;;5052665;28;20580;-65